Weather observations for the past three days for
Pocono Mountains Regional Airport
Metric (Imperial)
Date Time (edt) Wind (kph) Vis. (km) Weather Sky Cond. Temperature (ºC) Relative Humidity Wind Chill (°C) Heat Index (°C) Pressure Precipitation (cm)
Air Dwpt 6 hour altimeter (cm) sea level (mb) 1 hr 3 hr 6 hr
Max. Min.
30 22:53 NW 11 16.09 Mostly Cloudy BKN100 17.8 16.7 93% 76.63 1021.1
30 21:53 W 7 16.09 Overcast BKN090 OVC110 18.3 17.2 93% 76.63 1021.0
30 20:53 NW 13 16.09 Overcast BKN055 OVC070 18.9 17.2 90% 76.61 1020.5
30 19:53 NW 15 16.09 Light Rain FEW060 SCT075 BKN110 19.4 17.2 24.4 19.4 87% 76.56 1020.1
30 18:53 W 13 16.09 Partly Cloudy FEW070 SCT120 21.1 17.2 79% 76.53 1019.7
30 17:53 W 17 16.09 Overcast SCT090 OVC110 21.7 16.7 73% 76.53 1019.7
30 16:53 W 17 16.09 Overcast OVC100 22.2 17.2 73% 76.53 1019.6
30 15:53 W 17 16.09 A Few Clouds FEW120 22.8 16.1 66% 76.56 1019.8
30 14:53 W 19 G 41 16.09 Mostly Cloudy BKN030 BKN037 24.4 17.2 64% 25 76.58 1020.0
30 13:53 W 17 16.09 Partly Cloudy SCT023 SCT031 23.3 17.8 23.9 17.2 71% 76.61 1020.7
30 12:53 W 19 16.09 Overcast OVC015 21.7 17.8 79% 76.66 1021.3
30 11:53 SW 19 16.09 Overcast OVC010 20 17.2 84% 76.68 1021.9
30 10:53 SW 15 14.48 Overcast OVC007 18.3 16.7 90% 76.73 1022.7
30 09:53 SW 19 16.09 Overcast OVC011 18.9 15.6 81% 76.73 1022.7
30 08:53 SW 20 G 31 16.09 A Few Clouds FEW012 19.4 13.3 68% 76.76 1022.8
30 07:53 SW 6 16.09 Partly Cloudy SCT030 SCT041 17.2 11.1 17.2 13.3 68% 76.78 1023.3
30 06:53 W 9 16.09 Fair CLR 15 10 72% 76.81 1023.3
30 05:53 W 7 16.09 Fair CLR 14.4 10 75% 76.78 1023.0
30 04:53 W 7 16.09 Fair CLR 14.4 10.6 78% 76.81 1023.2
30 03:53 W 9 16.09 Fair CLR 15 10 72% 76.81 1023.2
30 02:53 W 9 16.09 Fair CLR 15 10 72% 76.84 1023.6
30 01:53 W 9 16.09 Fair CLR 13.3 10 16.1 11.1 81% 76.84 1023.7
30 00:53 NW 6 16.09 Fair CLR 12.2 10.6 90% 76.84 1024.1
29 23:53 Calm 16.09 Fair CLR 11.7 10.6 93% 76.84 1024.1
29 22:53 Calm 16.09 Fair CLR 12.8 11.1 90% 76.84 1024.1
29 21:53 Calm 16.09 Fair CLR 12.8 11.7 93% 76.84 1024.1
29 20:53 Calm 16.09 Fair CLR 13.9 11.7 87% 76.81 1024.0
29 19:53 Calm 16.09 Fair CLR 16.1 11.7 22.2 16.1 75% 76.76 1023.3
29 18:53 W 9 16.09 Fair CLR 20 9.4 51% 76.81 1023.9
29 17:53 NW 15 16.09 Fair CLR 21.7 7.8 41% 76.81 1023.6
29 16:53 NW 15 16.09 Fair CLR 21.7 7.8 41% 76.78 1023.5
29 15:53 NW 11 16.09 Fair CLR 22.2 6.7 37% 76.84 1024.0
29 14:53 Calm 16.09 Fair CLR 21.7 6.7 38% 76.86 1024.3
29 13:53 Calm 16.09 Fair CLR 21.1 7.8 21.1 13.9 42% 76.89 1024.7
29 12:53 Calm 16.09 Fair CLR 20 7.2 44% 76.94 1025.2
29 11:53 Vrbl 6 16.09 Fair CLR 18.9 7.8 49% 76.94 1025.4
29 10:53 N 11 16.09 Fair CLR 18.3 7.8 51% 76.94 1025.4
29 09:53 N 11 16.09 Fair CLR 17.2 7.2 52% 76.94 1025.2
29 08:53 N 13 16.09 Fair CLR 16.1 7.2 56% 76.91 1025.0
29 07:53 N 11 16.09 Fair CLR 13.9 9.4 13.9 8.3 74% 76.89 1024.7
29 06:53 N 11 16.09 Fair CLR 11.1 8.9 86% 76.86 1024.4
29 05:53 N 11 16.09 Fair CLR 10.6 8.3 86% 76.81 1023.7
29 04:53 Vrbl 6 16.09 Fair CLR 8.3 7.2 93% 76.76 1023.3
29 03:53 NW 7 16.09 Fair CLR 10.6 8.3 86% 76.73 1022.3
29 02:53 NW 7 16.09 Fair CLR 11.1 8.3 83% 76.71 1022.3
29 01:53 NW 13 16.09 Fair CLR 12.2 8.3 18.9 12.2 77% 76.71 1022.0
29 00:53 NW 11 16.09 Fair CLR 12.8 8.3 74% 76.68 1021.8
28 23:53 NW 9 16.09 Fair CLR 13.3 8.9 75% 76.68 1021.6
28 21:53 NW 15 16.09 Fair CLR 16.1 11.7 75% 76.61 1020.8
28 20:53 NW 7 16.09 Fair CLR 16.7 13.9 84% 76.58 1020.3
28 19:53 NW 7 16.09 Fair CLR 18.9 13.9 24.4 18.9 73% 76.5 1019.4
28 18:53 NW 17 16.09 A Few Clouds FEW040 21.1 13.3 61% 76.48 1019.1
28 17:53 NW 11 16.09 Fair CLR 22.8 12.8 53% 76.48 1018.7
28 16:53 NW 17 16.09 A Few Clouds FEW041 22.8 13.3 55% 76.45 1018.4
28 15:53 NW 19 16.09 A Few Clouds FEW048 23.3 13.9 56% 76.45 1018.3
28 14:53 NW 19 16.09 A Few Clouds FEW036 23.3 14.4 57% 76.45 1018.4
28 13:53 NW 19 16.09 A Few Clouds FEW030 22.8 15 23.3 16.1 62% 76.45 1018.4
28 12:53 NW 24 G 39 16.09 Partly Cloudy SCT028 22.8 16.1 66% 76.45 1018.4
28 11:53 Calm 16.09 Mostly Cloudy BKN025 22.2 16.1 68% 76.48 1018.7
28 10:53 NW 15 16.09 Mostly Cloudy BKN016 20.6 16.1 76% 76.45 1018.6
28 09:53 NW 13 16.09 Mostly Cloudy BKN008 BKN080 18.3 16.7 90% 76.43 1018.4
28 08:53 NW 19 16.09 Overcast OVC006 17.2 16.7 97% 76.38 1017.6
28 07:53 N 7 16.09 Fair CLR 15.6 15.6 16.1 13.9 100% 76.35 1017.5
28 06:53 Calm 0.40 Fog VV001 14.4 14.4 100% 76.33 1016.8
28 05:53 Calm 1.21 Fog/Mist BKN001 14.4 14.4 100% 76.25 1015.8
28 04:53 W 6 16.09 Fair CLR 14.4 14.4 100% 76.2 1015.1
28 03:53 NW 13 16.09 Fair CLR 15.6 15 96% 76.23 1015.3
28 02:53 Calm 16.09 Fair CLR 15 15 100% 76.2 1015.2
28 01:53 Calm 16.09 Partly Cloudy SCT110 16.7 15 18.9 16.1 90% 76.23 1015.3 0.71
28 00:53 S 17 16.09 Mostly Cloudy FEW075 BKN100 17.2 14.4 84% 76.3 1016.5 0.2
27 23:53 S 17 11.27 Thunderstorm Rain SCT075 OVC095 18.3 15.6 84% 76.35 1017.2 0.33
Date Time (edt) Wind (kph) Vis. (km) Weather Sky Cond. Air Dwpt Max. Min. Relative Humidity Wind Chill (°C) Heat Index (°C) altimeter (cm) sea level (mb) 1 hr 3 hr 6 hr
6 hour
Temperature (ºC) Pressure Precipitation (cm)